createdAt,value
2018-02-25T05:00:35.525Z,62.75
2018-02-25T05:01:00.989Z,62.84
2018-02-25T05:01:26.449Z,62.56
2018-02-25T05:01:51.968Z,62.56
2018-02-25T05:02:17.422Z,62.75
2018-02-25T05:02:42.890Z,62.66
2018-02-25T05:03:08.370Z,62.75
2018-02-25T05:03:33.833Z,62.47
2018-02-25T05:04:42.508Z,62.56
2018-02-25T05:05:07.984Z,62.47
2018-02-25T05:05:33.477Z,62.28
2018-02-25T05:05:58.969Z,62.37
2018-02-25T05:06:24.434Z,62.28
2018-02-25T05:06:49.887Z,62.47
2018-02-25T05:07:15.351Z,62.47
2018-02-25T05:07:40.813Z,62.66
2018-02-25T05:08:06.349Z,62.37
2018-02-25T05:08:31.725Z,62.37
2018-02-25T05:08:57.282Z,62.66
2018-02-25T05:09:22.772Z,62.66
2018-02-25T05:09:48.212Z,62.75
2018-02-25T05:10:13.644Z,62.84
2018-02-25T05:10:39.148Z,62.75
2018-02-25T05:11:04.631Z,62.75
2018-02-25T05:11:30.063Z,62.56
2018-02-25T05:11:55.542Z,62.94
2018-02-25T05:12:20.977Z,62.84
2018-02-25T05:12:46.448Z,62.75
2018-02-25T05:13:11.905Z,62.84
2018-02-25T05:13:37.396Z,62.75
2018-02-25T05:14:02.860Z,62.84
2018-02-25T05:14:28.306Z,62.84
2018-02-25T05:14:53.765Z,62.94
2018-02-25T05:15:19.211Z,62.84
2018-02-25T05:15:44.712Z,62.75
2018-02-25T05:16:10.192Z,62.84
2018-02-25T05:16:35.629Z,62.56
2018-02-25T05:17:01.111Z,63.6
2018-02-25T05:17:26.596Z,63.7
2018-02-25T05:17:52.028Z,63.57
2018-02-25T05:18:17.504Z,63.7
2018-02-25T05:18:42.972Z,63.7
2018-02-25T05:19:08.413Z,63.7
2018-02-25T05:19:33.898Z,63.7
2018-02-25T05:19:59.341Z,63.6
2018-02-25T05:20:24.792Z,63.51
2018-02-25T05:20:50.269Z,63.41
2018-02-25T05:21:15.724Z,63.6
2018-02-25T05:21:41.217Z,63.41
2018-02-25T05:22:06.639Z,63.41
2018-02-25T05:22:32.073Z,63.7
2018-02-25T05:22:57.554Z,63.51
2018-02-25T05:23:23.070Z,63.47
2018-02-25T05:23:48.468Z,63.13
2018-02-25T05:24:13.939Z,63.41
2018-02-25T05:24:39.407Z,63.03
2018-02-25T05:25:04.848Z,63.13
2018-02-25T05:25:30.304Z,63.38
2018-02-25T05:25:55.751Z,63.51
2018-02-25T05:26:21.223Z,63.41
2018-02-25T05:26:46.687Z,63.41
2018-02-25T05:27:12.149Z,63.22
2018-02-25T05:27:37.609Z,62.94
2018-02-25T05:28:03.100Z,63.13
2018-02-25T05:28:28.577Z,62.94
2018-02-25T05:28:54.031Z,63.13
2018-02-25T05:29:19.467Z,63.22
2018-02-25T05:29:45.035Z,63.41
2018-02-25T05:30:10.461Z,63.13
2018-02-25T05:30:35.935Z,63.13
2018-02-25T05:31:01.391Z,63.22
2018-02-25T05:31:26.861Z,63.32
2018-02-25T05:31:52.357Z,63.13
2018-02-25T05:32:17.774Z,63.22
2018-02-25T05:32:43.232Z,63.03
2018-02-25T05:33:08.686Z,63.03
2018-02-25T05:33:34.197Z,63.03
2018-02-25T05:33:59.592Z,63.19
2018-02-25T05:34:25.079Z,63.03
2018-02-25T05:34:50.561Z,63.47
2018-02-25T05:35:15.975Z,63.47
2018-02-25T05:35:41.428Z,63.22
2018-02-25T05:36:06.876Z,63.41
2018-02-25T05:36:32.344Z,63.38
2018-02-25T05:36:57.772Z,63.41
2018-02-25T05:37:23.269Z,63.38
2018-02-25T05:37:48.680Z,63.1
2018-02-25T05:38:14.193Z,63.29
2018-02-25T05:38:39.626Z,63.47
2018-02-25T05:39:05.126Z,63.32
2018-02-25T05:39:30.548Z,63.19
2018-02-25T05:39:55.992Z,63.29
2018-02-25T05:40:21.427Z,63.32
2018-02-25T05:40:46.893Z,63.1
2018-02-25T05:41:12.352Z,63.22
2018-02-25T05:41:37.784Z,63.29
2018-02-25T05:42:03.302Z,63.1
2018-02-25T05:42:28.813Z,63.19
2018-02-25T05:42:54.276Z,63.38
2018-02-25T05:43:19.632Z,63.47
2018-02-25T05:43:45.085Z,63.47
2018-02-25T05:44:10.788Z,63.47
2018-02-25T05:44:36.220Z,63.38
2018-02-25T05:45:01.662Z,63.29
2018-02-25T05:45:27.108Z,63.76
2018-02-25T05:45:52.563Z,64.04
2018-02-25T05:46:18.005Z,64.04
2018-02-25T05:46:43.461Z,64.04
2018-02-25T05:47:08.953Z,64.23
2018-02-25T05:47:34.378Z,63.95
2018-02-25T05:47:59.856Z,63.89
2018-02-25T05:48:25.338Z,63.95
2018-02-25T05:48:50.801Z,63.85
2018-02-25T05:49:16.270Z,63.85
2018-02-25T05:49:41.717Z,63.85
2018-02-25T05:50:07.203Z,63.85
2018-02-25T05:50:32.688Z,63.76
2018-02-25T05:50:58.124Z,63.95
2018-02-25T05:51:23.607Z,63.76
2018-02-25T05:51:49.090Z,63.76
2018-02-25T05:52:14.522Z,63.95
2018-02-25T05:52:39.981Z,63.76
2018-02-25T05:53:05.672Z,63.76
2018-02-25T05:53:30.978Z,63.85
2018-02-25T05:53:56.463Z,63.85
2018-02-25T05:54:21.911Z,63.85
2018-02-25T05:54:47.416Z,63.57
2018-02-25T05:55:12.854Z,63.85
2018-02-25T05:55:38.355Z,63.95
2018-02-25T05:56:03.789Z,63.95
2018-02-25T05:56:29.283Z,63.76
2018-02-25T05:56:54.718Z,63.47
2018-02-25T05:57:20.179Z,63.95
2018-02-25T05:57:45.902Z,64.14
2018-02-25T05:58:11.134Z,64.23
2018-02-25T05:58:36.606Z,64.32
2018-02-25T05:59:02.128Z,64.04
2018-02-25T05:59:27.596Z,64.04
2018-02-25T05:59:53.093Z,64.14
2018-02-25T06:00:18.546Z,64.42
2018-02-25T06:00:44.046Z,64.51
2018-02-25T06:01:09.486Z,64.14
2018-02-25T06:01:34.957Z,64.14
2018-02-25T06:02:00.395Z,64.23
2018-02-25T06:02:25.849Z,64.23
2018-02-25T06:02:51.299Z,64.32
2018-02-25T06:03:16.814Z,64.61
2018-02-25T06:03:42.249Z,64.14
2018-02-25T06:04:07.686Z,64.51
2018-02-25T06:04:33.144Z,64.32
2018-02-25T06:04:58.592Z,64.32
2018-02-25T06:05:24.040Z,64.23
2018-02-25T06:05:49.521Z,64.14
2018-02-25T06:06:14.994Z,64.32
2018-02-25T06:06:40.498Z,64.14
2018-02-25T06:07:05.983Z,64.32
2018-02-25T06:07:31.448Z,64.32
2018-02-25T06:07:56.952Z,64.14
2018-02-25T06:08:22.661Z,64.32
2018-02-25T06:08:48.138Z,64.23
2018-02-25T06:09:13.615Z,64.7
2018-02-25T06:09:39.113Z,64.51
2018-02-25T06:10:04.562Z,64.23
2018-02-25T06:10:30.042Z,64.32
2018-02-25T06:10:55.535Z,64.14
2018-02-25T06:11:20.978Z,64.23
2018-02-25T06:11:46.453Z,64.51
2018-02-25T06:12:11.956Z,64.51
2018-02-25T06:12:37.435Z,64.32
2018-02-25T06:13:02.893Z,64.23
2018-02-25T06:13:28.346Z,64.42
2018-02-25T06:13:53.825Z,64.23
2018-02-25T06:14:19.274Z,64.04
2018-02-25T06:14:44.752Z,64.42
2018-02-25T06:15:10.239Z,64.42
2018-02-25T06:15:35.721Z,64.42
2018-02-25T06:16:01.211Z,64.61
2018-02-25T06:16:26.662Z,64.42
2018-02-25T06:16:52.114Z,64.51
2018-02-25T06:17:17.543Z,64.42
2018-02-25T06:17:43.015Z,64.42
2018-02-25T06:18:08.501Z,64.51
2018-02-25T06:18:33.960Z,64.79
2018-02-25T06:18:59.409Z,64.79
2018-02-25T06:19:24.868Z,64.89
2018-02-25T06:19:50.347Z,64.61
2018-02-25T06:20:15.841Z,64.7
2018-02-25T06:20:41.273Z,64.7
2018-02-25T06:21:06.789Z,64.89
2018-02-25T06:21:32.444Z,64.79
2018-02-25T06:21:57.876Z,64.89
2018-02-25T06:22:23.374Z,64.79
2018-02-25T06:22:48.822Z,64.79
2018-02-25T06:23:14.335Z,64.89
2018-02-25T06:23:40.476Z,64.89
2018-02-25T06:24:06.217Z,64.89
2018-02-25T06:24:31.652Z,64.7
2018-02-25T06:24:57.125Z,64.7
2018-02-25T06:25:22.568Z,64.7
2018-02-25T06:25:48.099Z,64.79
2018-02-25T06:26:13.558Z,64.89
2018-02-25T06:26:38.994Z,64.7
2018-02-25T06:27:04.466Z,64.42
2018-02-25T06:27:29.988Z,64.23
2018-02-25T06:27:55.363Z,64.61
2018-02-25T06:28:20.850Z,64.79
2018-02-25T06:28:46.302Z,64.98
2018-02-25T06:29:11.802Z,64.79
2018-02-25T06:29:37.215Z,64.79
2018-02-25T06:30:02.738Z,64.7
2018-02-25T06:30:28.212Z,64.7
2018-02-25T06:30:53.639Z,64.89
2018-02-25T06:31:19.135Z,64.79
2018-02-25T06:31:44.578Z,64.79
2018-02-25T06:32:10.051Z,64.79
2018-02-25T06:32:35.518Z,64.79
2018-02-25T06:33:00.956Z,64.79
2018-02-25T06:33:26.429Z,64.7
2018-02-25T06:33:51.920Z,64.89
2018-02-25T06:34:17.388Z,64.89
2018-02-25T06:34:42.827Z,64.89
2018-02-25T06:35:08.317Z,64.7
2018-02-25T06:35:33.781Z,64.79
2018-02-25T06:35:59.238Z,64.89
2018-02-25T06:36:24.717Z,64.61
2018-02-25T06:36:50.312Z,64.7
2018-02-25T06:37:15.677Z,64.61
2018-02-25T06:37:41.155Z,64.7
2018-02-25T06:38:06.608Z,64.79
2018-02-25T06:38:32.059Z,64.7
2018-02-25T06:38:57.540Z,64.7
2018-02-25T06:39:22.992Z,64.89
2018-02-25T06:39:48.472Z,64.89
2018-02-25T06:40:13.923Z,64.7
2018-02-25T06:40:39.485Z,64.79
2018-02-25T06:41:04.866Z,64.7
2018-02-25T06:41:30.335Z,64.61
2018-02-25T06:41:55.772Z,64.7
2018-02-25T06:42:21.233Z,64.51
2018-02-25T06:42:46.692Z,64.61
2018-02-25T06:43:12.157Z,64.42
2018-02-25T06:43:37.642Z,64.61
2018-02-25T06:44:03.195Z,64.42
2018-02-25T06:44:28.727Z,64.51
2018-02-25T06:44:54.105Z,64.7
2018-02-25T06:45:19.594Z,64.61
2018-02-25T06:45:45.014Z,64.51
2018-02-25T06:46:10.491Z,64.51
2018-02-25T06:46:36.005Z,64.51
2018-02-25T06:47:01.475Z,64.51
2018-02-25T06:47:26.944Z,64.61
2018-02-25T06:47:52.405Z,64.61
2018-02-25T06:48:17.877Z,64.51
2018-02-25T06:48:43.331Z,64.51
2018-02-25T06:49:08.828Z,64.7
2018-02-25T06:49:34.286Z,64.7
2018-02-25T06:49:59.737Z,64.51
2018-02-25T06:50:25.217Z,64.51
2018-02-25T06:50:50.662Z,64.42
2018-02-25T06:51:16.209Z,64.51
2018-02-25T06:51:41.582Z,64.51
2018-02-25T06:52:07.051Z,64.61
2018-02-25T06:52:32.514Z,64.61
2018-02-25T06:52:58.127Z,64.51
2018-02-25T06:53:23.485Z,64.79
2018-02-25T06:53:48.984Z,64.79
2018-02-25T06:54:14.438Z,64.51
2018-02-25T06:54:40.013Z,64.51
2018-02-25T06:55:05.438Z,64.7
2018-02-25T06:55:30.894Z,64.61
2018-02-25T06:55:56.339Z,64.61
2018-02-25T06:56:21.828Z,64.61
2018-02-25T06:56:47.282Z,64.51
2018-02-25T06:57:12.778Z,64.89
2018-02-25T06:57:38.240Z,64.51
2018-02-25T06:58:03.709Z,64.7
2018-02-25T06:58:29.169Z,64.7
2018-02-25T06:58:54.654Z,64.61
2018-02-25T06:59:20.114Z,64.51
2018-02-25T06:59:45.554Z,64.51
2018-02-25T07:00:11.055Z,64.61
2018-02-25T07:00:36.462Z,64.61
2018-02-25T07:01:01.955Z,64.7
2018-02-25T07:01:27.426Z,64.7
2018-02-25T07:01:52.884Z,64.51
2018-02-25T07:02:18.340Z,64.61
2018-02-25T07:02:43.801Z,64.79
2018-02-25T07:03:09.317Z,64.7
2018-02-25T07:03:34.714Z,64.7
2018-02-25T07:04:00.207Z,64.61
2018-02-25T07:04:25.641Z,64.51
2018-02-25T07:04:51.122Z,64.42
2018-02-25T07:05:16.612Z,64.61
2018-02-25T07:05:42.106Z,64.51
2018-02-25T07:06:07.636Z,64.7
2018-02-25T07:06:33.052Z,64.61
2018-02-25T07:06:58.512Z,64.7
2018-02-25T07:07:23.988Z,64.61
2018-02-25T07:07:49.464Z,64.61
2018-02-25T07:08:14.935Z,64.61
2018-02-25T07:08:40.381Z,64.61
2018-02-25T07:09:05.870Z,64.89
2018-02-25T07:09:31.375Z,64.89
2018-02-25T07:09:56.816Z,64.89
2018-02-25T07:10:22.236Z,64.89
2018-02-25T07:10:47.726Z,64.89
2018-02-25T07:11:13.190Z,64.89
2018-02-25T07:11:38.646Z,64.79
2018-02-25T07:12:04.147Z,64.61
2018-02-25T07:12:29.597Z,64.61
2018-02-25T07:12:55.104Z,64.89
2018-02-25T07:13:20.508Z,64.89
2018-02-25T07:13:45.984Z,64.79
2018-02-25T07:14:11.458Z,64.61
2018-02-25T07:14:36.937Z,64.51
2018-02-25T07:15:02.460Z,64.61
2018-02-25T07:15:27.872Z,64.51
2018-02-25T07:15:53.332Z,64.61
2018-02-25T07:16:18.770Z,64.51
2018-02-25T07:16:44.302Z,64.79
2018-02-25T07:17:09.734Z,64.51
2018-02-25T07:17:35.255Z,64.61
2018-02-25T07:18:00.694Z,64.51
2018-02-25T07:18:26.138Z,64.61
2018-02-25T07:18:51.624Z,64.51
2018-02-25T07:19:17.087Z,64.51
2018-02-25T07:19:42.544Z,64.61
2018-02-25T07:20:08.048Z,64.51
2018-02-25T07:20:33.501Z,64.51
2018-02-25T07:20:58.976Z,64.7
2018-02-25T07:21:24.406Z,64.7
2018-02-25T07:21:49.916Z,64.7
2018-02-25T07:22:15.418Z,64.51
2018-02-25T07:22:40.855Z,64.61
2018-02-25T07:23:06.341Z,64.7
2018-02-25T07:23:31.917Z,64.92
2018-02-25T07:23:57.388Z,64.73
2018-02-25T07:24:22.851Z,64.79
2018-02-25T07:24:48.296Z,64.73
2018-02-25T07:25:13.809Z,64.42
2018-02-25T07:25:39.338Z,64.45
2018-02-25T07:26:04.724Z,64.45
2018-02-25T07:26:30.175Z,64.54
2018-02-25T07:26:55.704Z,64.26
2018-02-25T07:27:21.168Z,64.36
2018-02-25T07:27:46.628Z,64.17
2018-02-25T07:28:12.120Z,64.64
2018-02-25T07:28:37.628Z,64.07
2018-02-25T07:29:03.131Z,64.07
2018-02-25T07:29:28.615Z,64.07
2018-02-25T07:29:54.084Z,64.07
2018-02-25T07:30:19.548Z,64.26
2018-02-25T07:30:45.131Z,64.07
2018-02-25T07:31:10.573Z,64.17
2018-02-25T07:31:36.033Z,64.07
2018-02-25T07:32:01.500Z,63.89
2018-02-25T07:32:26.991Z,64.07
2018-02-25T07:32:52.424Z,63.98
2018-02-25T07:33:17.887Z,63.98
2018-02-25T07:33:43.559Z,64.17
2018-02-25T07:34:09.056Z,63.98
2018-02-25T07:34:34.527Z,64.07
2018-02-25T07:35:00.095Z,64.07
2018-02-25T07:35:25.483Z,64.45
2018-02-25T07:35:50.951Z,64.17
2018-02-25T07:36:16.433Z,63.7
2018-02-25T07:36:41.899Z,63.7
2018-02-25T07:37:07.362Z,63.89
2018-02-25T07:37:32.937Z,63.7
2018-02-25T07:37:58.541Z,63.79
2018-02-25T07:38:24.854Z,64.17
2018-02-25T07:38:50.375Z,63.79
2018-02-25T07:39:15.826Z,64.07
2018-02-25T07:39:41.274Z,64.17
2018-02-25T07:40:06.872Z,63.32
2018-02-25T07:41:05.561Z,63.13
2018-02-25T07:41:31.164Z,63.32
2018-02-25T07:41:57.062Z,63.22
2018-02-25T07:42:22.735Z,63.41
2018-02-25T07:42:48.052Z,63.22
2018-02-25T07:43:13.886Z,62.84
2018-02-25T07:43:39.070Z,63.22
2018-02-25T07:44:04.550Z,62.75
2018-02-25T07:44:30.027Z,62.94
2018-02-25T07:44:55.475Z,62.75
2018-02-25T07:45:21.035Z,62.84
2018-02-25T07:45:46.643Z,62.37
2018-02-25T07:46:12.118Z,62.28
2018-02-25T07:46:37.611Z,61.99
2018-02-25T07:47:03.110Z,62.18
2018-02-25T07:47:28.536Z,62.18
2018-02-25T07:47:54.081Z,61.71
2018-02-25T07:48:19.518Z,61.61
2018-02-25T07:48:44.941Z,62.18
2018-02-25T07:49:10.612Z,61.9
2018-02-25T07:49:36.019Z,61.99
2018-02-25T07:50:01.429Z,62.28
2018-02-25T07:50:26.946Z,62.37
2018-02-25T07:50:52.397Z,62.28
2018-02-25T07:51:17.917Z,62.28
2018-02-25T07:51:43.324Z,62.09
2018-02-25T07:52:08.797Z,61.9
2018-02-25T07:52:34.307Z,61.61
2018-02-25T07:52:59.781Z,61.61
2018-02-25T07:53:25.303Z,61.71
2018-02-25T07:53:50.757Z,61.61
2018-02-25T07:54:16.227Z,61.24
2018-02-25T07:54:41.845Z,61.33
2018-02-25T07:55:07.326Z,61.43
2018-02-25T07:55:32.866Z,61.43
2018-02-25T07:55:58.291Z,60.96
2018-02-25T07:56:23.875Z,61.05
2018-02-25T07:56:49.371Z,60.68
2018-02-25T07:57:14.850Z,61.05
2018-02-25T07:57:40.337Z,60.86
2018-02-25T07:58:05.900Z,61.05
2018-02-25T07:58:31.296Z,61.24
2018-02-25T07:58:56.781Z,60.86
2018-02-25T07:59:22.248Z,61.05
2018-02-25T07:59:47.737Z,60.86
2018-02-25T08:00:13.177Z,60.86
2018-02-25T08:00:38.667Z,60.77
2018-02-25T08:01:04.165Z,60.68
2018-02-25T08:01:29.631Z,60.68
2018-02-25T08:01:55.058Z,61.05
2018-02-25T08:02:20.583Z,60.58
2018-02-25T08:02:46.020Z,60.86
2018-02-25T08:03:11.472Z,60.21
2018-02-25T08:03:36.990Z,60.21
2018-02-25T08:04:02.438Z,60.21
2018-02-25T08:04:27.941Z,60.21
2018-02-25T08:04:53.407Z,60.3
2018-02-25T08:05:18.851Z,60.21
2018-02-25T08:05:44.321Z,60.3
2018-02-25T08:06:09.800Z,59.92
2018-02-25T08:06:35.263Z,60.11
2018-02-25T08:07:00.727Z,59.92
2018-02-25T08:07:26.243Z,60.21
2018-02-25T08:07:51.687Z,60.21
2018-02-25T08:08:17.200Z,60.49
2018-02-25T08:08:42.890Z,59.73
2018-02-25T08:09:08.285Z,60.11
2018-02-25T08:09:34.290Z,59.83
2018-02-25T08:09:59.848Z,59.64
2018-02-25T08:10:53.911Z,59.64
2018-02-25T08:11:19.801Z,59.54
2018-02-25T08:11:45.417Z,59.83
2018-02-25T08:12:11.538Z,59.92
2018-02-25T08:12:37.217Z,59.83
2018-02-25T08:13:03.080Z,59.73
2018-02-25T08:13:28.458Z,59.83
2018-02-25T08:13:54.294Z,59.64
2018-02-25T08:14:20.029Z,59.54
2018-02-25T08:14:45.644Z,59.54
2018-02-25T08:15:11.161Z,59.92
2018-02-25T08:15:37.160Z,59.92
2018-02-25T08:16:02.720Z,59.92
2018-02-25T08:16:28.232Z,59.73
2018-02-25T08:16:53.660Z,59.35
2018-02-25T08:17:19.197Z,59.83
2018-02-25T08:17:44.748Z,59.64
2018-02-25T08:18:10.421Z,59.26
2018-02-25T08:18:36.298Z,59.35
2018-02-25T08:19:01.582Z,59.26
2018-02-25T08:19:27.272Z,59.07
2018-02-25T08:19:53.048Z,59.35
2018-02-25T08:20:18.534Z,58.88
2018-02-25T08:20:44.122Z,58.5
2018-02-25T08:21:09.591Z,59.38
2018-02-25T08:21:35.135Z,58.72
2018-02-25T08:22:00.547Z,58.82
2018-02-25T08:22:26.048Z,58.91
2018-02-25T08:22:51.521Z,58.79
2018-02-25T08:23:17.024Z,58.63
2018-02-25T08:23:42.539Z,58.41
2018-02-25T08:24:08.291Z,58.41
2018-02-25T08:24:33.629Z,58.44
2018-02-25T08:24:59.205Z,58.44
2018-02-25T08:25:24.678Z,58.53
2018-02-25T08:25:50.163Z,58.44
2018-02-25T08:26:15.632Z,58.72
2018-02-25T08:26:41.159Z,58.15
2018-02-25T08:27:06.568Z,58.25
2018-02-25T08:27:32.253Z,58.12
2018-02-25T08:27:57.627Z,58.15
2018-02-25T08:28:23.119Z,58.88
2018-02-25T08:28:48.543Z,58.06
2018-02-25T08:29:14.070Z,58.44
2018-02-25T08:29:39.527Z,58.44
2018-02-25T08:30:05.016Z,58.53
2018-02-25T08:30:30.494Z,58.34
2018-02-25T08:30:55.977Z,58.63
2018-02-25T08:31:21.434Z,58.53
2018-02-25T08:31:46.913Z,58.63
2018-02-25T08:32:12.409Z,58.53
2018-02-25T08:32:37.877Z,58.06
2018-02-25T08:33:03.367Z,59.19
2018-02-25T08:33:28.906Z,58.53
2018-02-25T08:33:54.337Z,58.53
2018-02-25T08:34:19.798Z,58.44
2018-02-25T08:34:45.268Z,58.34
2018-02-25T08:35:10.797Z,58.34
2018-02-25T08:35:36.206Z,58.25
2018-02-25T08:36:01.691Z,58.63
2018-02-25T08:36:27.139Z,58.53
2018-02-25T08:36:52.616Z,58.53
2018-02-25T08:37:18.305Z,58.53
2018-02-25T08:37:43.598Z,58.34
2018-02-25T08:38:09.081Z,58.53
2018-02-25T08:38:34.526Z,58.53
2018-02-25T08:39:00.001Z,58.25
2018-02-25T08:39:25.478Z,57.97
2018-02-25T08:39:50.957Z,58.06
2018-02-25T08:40:16.459Z,58.44
2018-02-25T08:40:41.869Z,58.34
2018-02-25T08:41:07.367Z,58.15
2018-02-25T08:41:32.831Z,58.15
2018-02-25T08:41:58.335Z,57.59
2018-02-25T08:42:23.767Z,57.87
2018-02-25T08:42:49.256Z,57.31
2018-02-25T08:43:14.750Z,56.93
2018-02-25T08:43:40.195Z,56.74
2018-02-25T08:44:05.679Z,56.93
2018-02-25T08:44:31.241Z,56.65
2018-02-25T08:44:56.688Z,56.93
2018-02-25T08:45:22.132Z,57.21
2018-02-25T08:45:47.590Z,57.31
2018-02-25T08:46:13.075Z,57.31
2018-02-25T08:46:38.532Z,57.21
2018-02-25T08:47:04.006Z,56.55
2018-02-25T08:47:29.516Z,56.93
2018-02-25T08:47:54.970Z,57.21
2018-02-25T08:48:20.464Z,57.12
2018-02-25T08:48:45.916Z,56.36
2018-02-25T08:49:11.384Z,56.17
2018-02-25T08:49:36.829Z,56.65
2018-02-25T08:50:02.309Z,56.46
2018-02-25T08:50:27.847Z,56.55
2018-02-25T08:50:53.323Z,55.7
2018-02-25T08:51:18.899Z,55.7
2018-02-25T08:51:44.290Z,55.98
2018-02-25T08:52:09.746Z,55.98
2018-02-25T08:52:35.214Z,55.7
2018-02-25T08:53:00.703Z,55.98
2018-02-25T08:53:26.176Z,55.61
2018-02-25T08:53:51.628Z,55.42
2018-02-25T08:54:17.111Z,55.7
2018-02-25T08:54:42.579Z,55.42
2018-02-25T08:55:08.100Z,55.04
2018-02-25T08:55:33.498Z,54.85
2018-02-25T08:55:58.976Z,55.32
2018-02-25T08:56:24.475Z,55.04
2018-02-25T08:56:50.000Z,55.23
2018-02-25T08:57:15.399Z,55.23
2018-02-25T08:57:40.913Z,55.13
2018-02-25T08:58:06.352Z,55.13
2018-02-25T08:58:31.824Z,54.94
2018-02-25T08:58:57.302Z,55.04
2018-02-25T08:59:22.753Z,54.85
2018-02-25T08:59:48.242Z,54.94
2018-02-25T09:00:13.706Z,55.13
2018-02-25T09:00:39.206Z,54.38
2018-02-25T09:01:04.671Z,53.91
2018-02-25T09:01:30.153Z,53.72
2018-02-25T09:01:55.653Z,53.34
2018-02-25T09:02:21.115Z,53.44
2018-02-25T09:02:46.557Z,53.15
2018-02-25T09:03:12.046Z,52.78
2018-02-25T09:03:37.527Z,52.96
2018-02-25T09:04:03.036Z,52.11
2018-02-25T09:04:28.451Z,52.11
2018-02-25T09:04:53.929Z,51.92
2018-02-25T09:05:19.411Z,52.3
2018-02-25T09:05:44.845Z,52.11
2018-02-25T09:06:10.327Z,52.02
2018-02-25T09:06:35.827Z,52.11
2018-02-25T09:07:01.290Z,52.02
2018-02-25T09:07:26.736Z,52.11
2018-02-25T09:07:52.269Z,52.4
2018-02-25T09:08:17.748Z,52.4
2018-02-25T09:08:43.209Z,52.68
2018-02-25T09:09:08.687Z,52.87
2018-02-25T09:09:34.143Z,52.96
2018-02-25T09:09:59.591Z,52.49
2018-02-25T09:10:25.081Z,52.21
2018-02-25T09:10:50.564Z,52.11
2018-02-25T09:11:16.118Z,52.11
2018-02-25T09:11:41.534Z,52.4
2018-02-25T09:12:06.999Z,51.92
2018-02-25T09:12:32.483Z,52.11
2018-02-25T09:12:57.947Z,51.83
2018-02-25T09:13:23.422Z,52.02
2018-02-25T09:13:48.869Z,52.21
2018-02-25T09:14:14.385Z,52.02
2018-02-25T09:14:39.847Z,52.14
2018-02-25T09:15:05.303Z,51.73
2018-02-25T09:15:30.837Z,51.73
2018-02-25T09:15:56.341Z,51.76
2018-02-25T09:16:21.825Z,51.86
2018-02-25T09:16:47.264Z,51.73
2018-02-25T09:17:12.739Z,51.76
2018-02-25T09:17:38.243Z,51.67
2018-02-25T09:18:03.678Z,51.48
2018-02-25T09:18:29.147Z,51.48
2018-02-25T09:18:54.644Z,51.29
2018-02-25T09:19:20.333Z,50.91
2018-02-25T09:19:45.862Z,51.1
2018-02-25T09:20:11.392Z,50.53
2018-02-25T09:20:36.888Z,49.97
2018-02-25T09:21:02.504Z,50.32
2018-02-25T09:21:27.885Z,49.94
2018-02-25T09:21:53.341Z,49.85
2018-02-25T09:22:18.917Z,49.94
2018-02-25T09:22:44.392Z,49.66
2018-02-25T09:23:09.884Z,49.76
2018-02-25T09:23:35.324Z,49.68
2018-02-25T09:24:01.097Z,49.66
2018-02-25T09:24:26.633Z,50.06
2018-02-25T09:24:52.061Z,49.19
2018-02-25T09:25:17.496Z,49.19
2018-02-25T09:25:42.990Z,48.81
2018-02-25T09:26:08.443Z,49.02
2018-02-25T09:26:34.028Z,49.19
2018-02-25T09:26:59.407Z,48.55
2018-02-25T09:27:24.884Z,48.43
2018-02-25T09:27:50.360Z,48.24
2018-02-25T09:28:15.849Z,48.15
2018-02-25T09:28:41.305Z,48.15
2018-02-25T09:29:06.776Z,47.39
2018-02-25T09:29:32.264Z,47.39
2018-02-25T09:29:57.773Z,47.39
2018-02-25T09:30:23.295Z,46.66
2018-02-25T09:30:48.701Z,47.13
2018-02-25T09:31:14.172Z,47.13
2018-02-25T09:31:39.640Z,46.94
2018-02-25T09:32:05.143Z,46.94
2018-02-25T09:32:30.616Z,47.23
2018-02-25T09:32:56.117Z,47.23
2018-02-25T09:33:21.575Z,47.7
2018-02-25T09:33:47.058Z,47.99
2018-02-25T09:34:12.539Z,47.61
2018-02-25T09:34:37.970Z,48.27
2018-02-25T09:35:03.450Z,48.18
2018-02-25T09:35:28.918Z,48.08
2018-02-25T09:35:54.418Z,48.36
2018-02-25T09:36:19.863Z,48.46
2018-02-25T09:36:45.357Z,48.36
2018-02-25T09:37:10.882Z,48.36
2018-02-25T09:37:36.341Z,48.46
2018-02-25T09:38:01.754Z,48.36
2018-02-25T09:38:27.239Z,48.18
2018-02-25T09:38:52.748Z,48.27
2018-02-25T09:39:18.241Z,47.61
2018-02-25T09:39:43.732Z,47.89
2018-02-25T09:40:09.168Z,47.42
2018-02-25T09:40:34.720Z,47.89
2018-02-25T09:41:00.125Z,47.89
2018-02-25T09:41:25.680Z,47.61
2018-02-25T09:41:51.161Z,47.61
2018-02-25T09:42:16.636Z,47.61
2018-02-25T09:42:42.101Z,47.8
2018-02-25T09:43:07.579Z,47.7
2018-02-25T09:43:33.067Z,47.42
2018-02-25T09:43:58.516Z,47.23
2018-02-25T09:44:24.029Z,47.32
2018-02-25T09:44:49.615Z,47.13
2018-02-25T09:45:15.103Z,47.23
2018-02-25T09:45:40.592Z,47.13
2018-02-25T09:46:06.064Z,47.51
2018-02-25T09:46:31.569Z,47.51
2018-02-25T09:46:56.996Z,47.61
2018-02-25T09:47:22.503Z,47.89
2018-02-25T09:47:47.964Z,47.61
2018-02-25T09:48:13.399Z,47.89
2018-02-25T09:48:38.960Z,47.8
2018-02-25T09:49:04.374Z,47.51
2018-02-25T09:49:29.919Z,48.18
2018-02-25T09:49:55.353Z,47.99
2018-02-25T09:50:20.786Z,48.36
2018-02-25T09:50:46.260Z,47.8
2018-02-25T09:51:11.755Z,47.42
2018-02-25T09:51:37.279Z,47.32
2018-02-25T09:52:02.748Z,47.42
2018-02-25T09:52:28.269Z,47.42
2018-02-25T09:52:53.748Z,47.13
2018-02-25T09:53:19.206Z,47.23
2018-02-25T09:53:44.669Z,47.51
2018-02-25T09:54:10.147Z,47.04
2018-02-25T09:54:35.626Z,47.13
2018-02-25T09:55:01.128Z,47.23
2018-02-25T09:55:26.585Z,46.85
2018-02-25T09:55:52.021Z,47.04
2018-02-25T09:56:17.527Z,47.13
2018-02-25T09:56:43.035Z,47.13
2018-02-25T09:57:08.669Z,47.04
2018-02-25T09:57:34.185Z,47.04
2018-02-25T09:57:59.804Z,47.23
2018-02-25T09:58:25.275Z,46.94
2018-02-25T09:58:50.727Z,47.32
2018-02-25T09:59:16.210Z,46.75
2018-02-25T09:59:41.660Z,46.37
2018-02-25T10:00:07.090Z,46.37
2018-02-25T10:00:32.809Z,46.09
2018-02-25T10:00:58.194Z,46.37
2018-02-25T10:01:23.680Z,46.47
2018-02-25T10:01:49.161Z,46.47
2018-02-25T10:02:14.719Z,46.37
2018-02-25T10:02:40.153Z,46.37
2018-02-25T10:03:05.652Z,46.37
2018-02-25T10:03:31.104Z,45.9
2018-02-25T10:03:56.577Z,45.81
2018-02-25T10:04:22.089Z,46.09
2018-02-25T10:04:47.546Z,45.81
2018-02-25T10:05:13.072Z,46.19
2018-02-25T10:05:38.492Z,46.37
2018-02-25T10:06:03.977Z,46.47
2018-02-25T10:06:29.644Z,46.28
2018-02-25T10:06:55.125Z,46.28
2018-02-25T10:07:20.577Z,46.37
2018-02-25T10:07:46.072Z,46.19
2018-02-25T10:08:11.683Z,46.19
2018-02-25T10:08:37.124Z,45.9
2018-02-25T10:09:02.610Z,45.53
2018-02-25T10:09:28.094Z,45.17
2018-02-25T10:09:53.623Z,44.58
2018-02-25T10:10:19.052Z,44.77
2018-02-25T10:10:44.518Z,44.11
2018-02-25T10:11:10.020Z,44.04
2018-02-25T10:11:35.488Z,44.02
2018-02-25T10:12:00.952Z,44.02
2018-02-25T10:12:26.449Z,44.11
2018-02-25T10:12:51.944Z,43.95
2018-02-25T10:13:17.456Z,43.92
2018-02-25T10:13:42.942Z,44.11
2018-02-25T10:14:08.433Z,43.92
2018-02-25T10:14:33.986Z,44.11
2018-02-25T10:14:59.496Z,44.21
2018-02-25T10:15:24.916Z,44.32
2018-02-25T10:15:50.400Z,44.39
2018-02-25T10:16:15.976Z,44.58
2018-02-25T10:16:41.348Z,44.7
2018-02-25T10:17:06.882Z,44.23
2018-02-25T10:17:32.384Z,44.51
2018-02-25T10:17:57.843Z,44.7
2018-02-25T10:18:23.355Z,44.7
2018-02-25T10:18:48.799Z,44.79
2018-02-25T10:19:14.237Z,44.51
2018-02-25T10:19:39.725Z,44.51
2018-02-25T10:20:05.202Z,44.23
2018-02-25T10:20:30.654Z,43.95
2018-02-25T10:20:56.107Z,44.49
2018-02-25T10:21:21.622Z,44.23
2018-02-25T10:21:47.099Z,43.95
2018-02-25T10:22:12.652Z,44.02
2018-02-25T10:22:38.052Z,43.66
2018-02-25T10:23:03.511Z,43.64
2018-02-25T10:23:28.993Z,43.83
2018-02-25T10:23:54.474Z,43.95
2018-02-25T10:24:20.012Z,43.64
2018-02-25T10:24:45.453Z,44.02
2018-02-25T10:25:10.953Z,44.3
2018-02-25T10:25:36.423Z,44.21
2018-02-25T10:26:01.938Z,44.42
2018-02-25T10:26:27.349Z,43.64
2018-02-25T10:26:52.826Z,44.02
2018-02-25T10:27:18.297Z,44.02
2018-02-25T10:27:43.746Z,43.92
2018-02-25T10:28:09.257Z,44.39
2018-02-25T10:28:34.723Z,44.49
2018-02-25T10:29:00.205Z,44.13
2018-02-25T10:29:25.644Z,44.21
2018-02-25T10:29:51.189Z,44.21
2018-02-25T10:30:16.615Z,44.23
2018-02-25T10:30:42.101Z,44.21
2018-02-25T10:31:07.603Z,44.21
2018-02-25T10:31:33.037Z,43.92